createdAt,value
2018-04-29T00:01:39.384Z,99629.28
2018-04-29T00:04:07.702Z,99629.19
2018-04-29T00:06:36.026Z,99615.78
2018-04-29T00:09:04.354Z,99616.25
2018-04-29T00:11:32.681Z,99607.69
2018-04-29T00:14:01.028Z,99608.30
2018-04-29T00:16:29.441Z,99612.39
2018-04-29T00:18:57.803Z,99603.36
2018-04-29T00:21:26.123Z,99604.62
2018-04-29T00:23:54.458Z,99605.56
2018-04-29T00:26:22.826Z,99604.84
2018-04-29T00:28:51.164Z,99597.37
2018-04-29T00:31:19.503Z,99582.00
2018-04-29T00:33:47.822Z,99586.29
2018-04-29T00:36:16.341Z,99589.83
2018-04-29T00:38:44.669Z,99591.66
2018-04-29T00:41:12.994Z,99594.88
2018-04-29T00:43:41.324Z,99602.87
2018-04-29T00:46:09.639Z,99596.81
2018-04-29T00:48:37.980Z,99596.14
2018-04-29T00:51:06.343Z,99597.75
2018-04-29T00:53:34.670Z,99603.55
2018-04-29T00:56:03.002Z,99604.89
2018-04-29T00:58:31.365Z,99600.56
2018-04-29T01:00:59.820Z,99606.91
2018-04-29T01:03:28.217Z,99605.31
2018-04-29T01:05:56.538Z,99603.38
2018-04-29T01:08:25.313Z,99610.00
2018-04-29T01:10:53.638Z,99612.17
2018-04-29T01:13:21.964Z,99612.89
2018-04-29T01:15:50.287Z,99607.88
2018-04-29T01:18:18.611Z,99604.20
2018-04-29T01:20:46.946Z,99606.78
2018-04-29T01:23:15.335Z,99611.59
2018-04-29T01:25:43.634Z,99622.67
2018-04-29T01:28:11.995Z,99624.09
2018-04-29T01:30:40.314Z,99626.55
2018-04-29T01:33:08.650Z,99621.26
2018-04-29T01:35:38.363Z,99622.30
2018-04-29T01:38:06.844Z,99631.00
2018-04-29T01:40:35.164Z,99622.84
2018-04-29T01:43:03.577Z,99623.95
2018-04-29T01:45:31.914Z,99627.05
2018-04-29T01:48:00.220Z,99629.84
2018-04-29T01:50:28.549Z,99628.45
2018-04-29T01:52:56.877Z,99627.46
2018-04-29T01:55:25.247Z,99629.26
2018-04-29T01:57:53.757Z,99624.50
2018-04-29T02:00:22.120Z,99624.60
2018-04-29T02:02:50.437Z,99621.59
2018-04-29T02:05:18.767Z,99624.11
2018-04-29T02:07:47.126Z,99624.33
2018-04-29T02:10:15.449Z,99629.33
2018-04-29T02:12:43.887Z,99633.02
2018-04-29T02:15:12.215Z,99630.78
2018-04-29T02:17:40.534Z,99630.94
2018-04-29T02:20:08.860Z,99635.94
2018-04-29T02:22:37.188Z,99634.82
2018-04-29T02:25:05.554Z,99628.88
2018-04-29T02:27:33.868Z,99622.45
2018-04-29T02:30:02.211Z,99626.20
2018-04-29T02:32:30.546Z,99625.06
2018-04-29T02:34:58.856Z,99630.56
2018-04-29T02:37:27.180Z,99632.20
2018-04-29T02:39:55.508Z,99636.58
2018-04-29T02:42:23.850Z,99633.31
2018-04-29T02:44:52.177Z,99636.23
2018-04-29T02:47:20.516Z,99643.22
2018-04-29T02:49:48.847Z,99637.09
2018-04-29T02:52:17.186Z,99639.83
2018-04-29T02:54:45.508Z,99642.02
2018-04-29T02:57:13.831Z,99639.47
2018-04-29T02:59:42.158Z,99632.64
2018-04-29T03:02:10.482Z,99634.44
2018-04-29T03:04:38.814Z,99633.36
2018-04-29T03:07:08.345Z,99633.80
2018-04-29T03:09:36.682Z,99626.86
2018-04-29T03:12:05.054Z,99623.30
2018-04-29T03:14:33.372Z,99620.98
2018-04-29T03:17:01.692Z,99618.48
2018-04-29T03:19:30.024Z,99616.85
2018-04-29T03:21:58.345Z,99611.77
2018-04-29T03:24:26.682Z,99610.75
2018-04-29T03:26:55.008Z,99615.80
2018-04-29T03:29:23.648Z,99618.03
2018-04-29T03:31:51.970Z,99612.87
2018-04-29T03:34:20.315Z,99614.43
2018-04-29T03:36:48.626Z,99606.40
2018-04-29T03:39:16.967Z,99603.64
2018-04-29T03:41:45.299Z,99599.22
2018-04-29T03:44:13.633Z,99599.90
2018-04-29T03:46:41.944Z,99593.42
2018-04-29T03:49:10.297Z,99599.84
2018-04-29T03:51:38.605Z,99597.00
2018-04-29T03:54:06.949Z,99594.53
2018-04-29T03:56:35.305Z,99597.27
2018-04-29T03:59:15.538Z,99602.43
2018-04-29T04:01:55.687Z,99604.56
2018-04-29T04:04:24.024Z,99605.27
2018-04-29T04:06:52.349Z,99599.70
2018-04-29T04:09:20.700Z,99603.59
2018-04-29T04:11:49.023Z,99604.11
2018-04-29T04:14:17.348Z,99610.20
2018-04-29T04:16:45.708Z,99606.30
2018-04-29T04:19:14.028Z,99615.50
2018-04-29T04:21:42.367Z,99615.16
2018-04-29T04:24:15.760Z,99621.92
2018-04-29T04:26:47.251Z,99625.50
2018-04-29T04:29:15.566Z,99636.50
2018-04-29T04:31:43.916Z,99649.89
2018-04-29T04:34:12.304Z,99660.75
2018-04-29T04:36:40.604Z,99665.95
2018-04-29T04:39:09.043Z,99665.94
2018-04-29T04:41:37.374Z,99661.41
2018-04-29T04:44:05.695Z,99665.87
2018-04-29T04:46:34.072Z,99671.53
2018-04-29T04:49:02.397Z,99670.07
2018-04-29T04:51:30.711Z,99664.68
2018-04-29T04:53:59.051Z,99661.29
2018-04-29T04:56:27.370Z,99659.64
2018-04-29T04:58:55.716Z,99672.25
2018-04-29T05:01:24.028Z,99672.89
2018-04-29T05:03:52.395Z,99662.59
2018-04-29T05:06:20.751Z,99667.06
2018-04-29T05:08:49.098Z,99668.04
2018-04-29T05:11:17.409Z,99661.80
2018-04-29T05:13:45.822Z,99654.50
2018-04-29T05:16:14.067Z,99648.45
2018-04-29T05:18:42.436Z,99644.36
2018-04-29T05:21:10.787Z,99637.26
2018-04-29T05:23:39.165Z,99623.70
2018-04-29T05:26:07.496Z,99628.20
2018-04-29T05:28:35.838Z,99636.70
2018-04-29T05:31:04.172Z,99643.87
2018-04-29T05:33:32.507Z,99650.84
2018-04-29T05:36:00.846Z,99664.50
2018-04-29T05:38:29.207Z,99671.23
2018-04-29T05:40:57.558Z,99669.20
2018-04-29T05:43:25.984Z,99659.34
2018-04-29T05:45:54.328Z,99664.98
2018-04-29T05:48:22.704Z,99654.91
2018-04-29T05:50:51.079Z,99660.16
2018-04-29T05:53:19.399Z,99651.20
2018-04-29T05:55:47.748Z,99653.51
2018-04-29T05:58:16.049Z,99656.61
2018-04-29T06:00:44.416Z,99653.18
2018-04-29T06:03:13.784Z,99648.59
2018-04-29T06:05:42.110Z,99646.78
2018-04-29T06:08:11.410Z,99649.22
2018-04-29T06:10:39.786Z,99650.58
2018-04-29T06:13:08.120Z,99651.08
2018-04-29T06:15:36.487Z,99647.29
2018-04-29T06:18:04.837Z,99642.11
2018-04-29T06:20:34.033Z,99634.30
2018-04-29T06:23:02.356Z,99636.36
2018-04-29T06:25:30.691Z,99643.90
2018-04-29T06:27:59.035Z,99651.12
2018-04-29T06:30:27.378Z,99653.78
2018-04-29T06:32:55.702Z,99657.27
2018-04-29T06:35:24.089Z,99662.37
2018-04-29T06:37:52.423Z,99644.72
2018-04-29T06:40:20.775Z,99654.56
2018-04-29T06:42:49.092Z,99656.55
2018-04-29T06:45:17.428Z,99657.57
2018-04-29T06:47:45.775Z,99651.61
2018-04-29T06:50:14.136Z,99642.71
2018-04-29T06:52:42.462Z,99638.73
2018-04-29T06:55:10.788Z,99643.43
2018-04-29T06:57:39.107Z,99644.36
2018-04-29T07:00:07.451Z,99643.43
2018-04-29T07:02:35.778Z,99642.20
2018-04-29T07:05:04.095Z,99637.69
2018-04-29T07:07:32.479Z,99637.31
2018-04-29T07:10:00.782Z,99632.38
2018-04-29T07:12:29.108Z,99635.87
2018-04-29T07:14:57.454Z,99641.06
2018-04-29T07:17:25.839Z,99642.50
2018-04-29T07:19:54.283Z,99638.70
2018-04-29T07:22:22.679Z,99635.36
2018-04-29T07:24:51.000Z,99639.12
2018-04-29T07:27:19.306Z,99633.79
2018-04-29T07:29:48.686Z,99634.58
2018-04-29T07:32:16.995Z,99629.84
2018-04-29T07:34:45.326Z,99623.55
2018-04-29T07:37:13.646Z,99623.97
2018-04-29T07:39:41.976Z,99621.47
2018-04-29T07:42:10.277Z,99622.48
2018-04-29T07:44:38.607Z,99618.77
2018-04-29T07:47:06.933Z,99612.69
2018-04-29T07:49:35.288Z,99615.46
2018-04-29T07:52:03.589Z,99615.61
2018-04-29T07:54:31.952Z,99613.01
2018-04-29T07:57:00.238Z,99601.47
2018-04-29T07:59:28.560Z,99598.34
2018-04-29T08:01:56.872Z,99588.41
2018-04-29T08:04:25.342Z,99586.39
2018-04-29T08:06:53.659Z,99595.39
2018-04-29T08:09:21.979Z,99593.81
2018-04-29T08:11:50.300Z,99589.87
2018-04-29T08:14:18.622Z,99590.36
2018-04-29T08:16:46.919Z,99582.94
2018-04-29T08:19:15.289Z,99579.65
2018-04-29T08:21:43.696Z,99572.56
2018-04-29T08:24:12.028Z,99566.16
2018-04-29T08:26:40.377Z,99564.98
2018-04-29T08:29:08.701Z,99559.50
2018-04-29T08:31:37.038Z,99552.27
2018-04-29T08:34:05.353Z,99553.42
2018-04-29T08:36:33.679Z,99552.48
2018-04-29T08:39:02.013Z,99560.63
2018-04-29T08:41:30.340Z,99558.53
2018-04-29T08:43:58.647Z,99553.61
2018-04-29T08:46:26.976Z,99553.17
2018-04-29T08:48:55.291Z,99555.14
2018-04-29T08:51:23.631Z,99556.17
2018-04-29T08:53:51.946Z,99548.33
2018-04-29T08:56:20.300Z,99548.92
2018-04-29T08:58:48.608Z,99549.13
2018-04-29T09:01:16.957Z,99548.29
2018-04-29T09:03:45.306Z,99545.94
2018-04-29T09:06:13.630Z,99546.77
2018-04-29T09:08:41.946Z,99537.59
2018-04-29T09:11:10.261Z,99541.79
2018-04-29T09:13:38.630Z,99538.45
2018-04-29T09:16:06.935Z,99540.47
2018-04-29T09:18:35.274Z,99538.75
2018-04-29T09:21:03.598Z,99545.70
2018-04-29T09:23:31.927Z,99552.57
2018-04-29T09:26:00.243Z,99545.05
2018-04-29T09:28:28.550Z,99542.18
2018-04-29T09:31:10.935Z,99539.55
2018-04-29T09:33:49.129Z,99532.55
2018-04-29T09:36:20.643Z,99534.92
2018-04-29T09:38:48.964Z,99532.64
2018-04-29T09:41:17.268Z,99536.77
2018-04-29T09:43:45.716Z,99533.18
2018-04-29T09:46:13.922Z,99521.63
2018-04-29T09:48:42.374Z,99525.66
2018-04-29T09:51:10.865Z,99524.58
2018-04-29T09:53:39.276Z,99522.92
2018-04-29T09:56:07.596Z,99518.69
2018-04-29T09:58:35.912Z,99513.44
2018-04-29T10:01:04.327Z,99508.06
2018-04-29T10:03:32.588Z,99510.02
2018-04-29T10:06:00.892Z,99514.08
2018-04-29T10:08:29.264Z,99509.34
2018-04-29T10:10:57.571Z,99508.28
2018-04-29T10:13:25.897Z,99511.02
2018-04-29T10:15:55.001Z,99497.47
2018-04-29T10:18:24.313Z,99498.37
2018-04-29T10:20:53.208Z,99497.94
2018-04-29T10:23:21.551Z,99488.86
2018-04-29T10:25:50.227Z,99480.73
2018-04-29T10:28:18.538Z,99479.60
2018-04-29T10:30:46.927Z,99473.05
2018-04-29T10:33:15.290Z,99478.15
2018-04-29T10:35:43.652Z,99469.39
2018-04-29T10:38:11.995Z,99468.37
2018-04-29T10:40:40.337Z,99456.92
2018-04-29T10:43:08.659Z,99453.63
2018-04-29T10:45:37.226Z,99450.82
2018-04-29T10:48:05.544Z,99450.80
2018-04-29T10:50:33.922Z,99444.61
2018-04-29T10:53:02.232Z,99443.54
2018-04-29T10:55:30.607Z,99431.05
2018-04-29T10:57:58.986Z,99432.53
2018-04-29T11:00:27.297Z,99434.77
2018-04-29T11:02:55.866Z,99435.65
2018-04-29T11:05:24.590Z,99424.85
2018-04-29T11:07:52.973Z,99420.95
2018-04-29T11:10:21.358Z,99409.98
2018-04-29T11:12:49.750Z,99410.56
2018-04-29T11:15:18.075Z,99406.98
2018-04-29T11:17:46.396Z,99396.75
2018-04-29T11:20:14.734Z,99391.87
2018-04-29T11:22:43.063Z,99390.91
2018-04-29T11:25:11.527Z,99399.05
2018-04-29T11:27:39.864Z,99391.64
2018-04-29T11:30:08.195Z,99391.53
2018-04-29T11:32:36.527Z,99383.78
2018-04-29T11:35:04.873Z,99390.34
2018-04-29T11:37:33.194Z,99391.85
2018-04-29T11:40:01.499Z,99385.62
2018-04-29T11:42:29.855Z,99381.02
2018-04-29T11:44:58.152Z,99377.95
2018-04-29T11:47:26.476Z,99378.13
2018-04-29T11:49:54.797Z,99373.77
2018-04-29T11:52:23.191Z,99370.65
2018-04-29T11:54:51.493Z,99368.89
2018-04-29T11:57:19.815Z,99363.47
2018-04-29T11:59:48.126Z,99361.88
2018-04-29T12:02:16.480Z,99360.29
2018-04-29T12:04:44.795Z,99358.41
2018-04-29T12:07:13.147Z,99360.77
2018-04-29T12:09:41.466Z,99357.57
2018-04-29T12:12:09.800Z,99347.61
2018-04-29T12:14:38.116Z,99359.36
2018-04-29T12:17:06.437Z,99357.34
2018-04-29T12:19:34.773Z,99357.47
2018-04-29T12:22:03.293Z,99346.97
2018-04-29T12:24:31.647Z,99349.25
2018-04-29T12:26:59.966Z,99349.44
2018-04-29T12:29:28.362Z,99346.69
2018-04-29T12:31:56.697Z,99345.56
2018-04-29T12:34:25.043Z,99343.39
2018-04-29T12:36:53.431Z,99342.38
2018-04-29T12:39:21.751Z,99337.83
2018-04-29T12:41:50.141Z,99335.58
2018-04-29T12:44:18.448Z,99335.52
2018-04-29T12:46:46.911Z,99327.66
2018-04-29T12:49:15.166Z,99320.36
2018-04-29T12:51:43.489Z,99328.48
2018-04-29T12:54:11.831Z,99319.19
2018-04-29T12:56:40.153Z,99317.23
2018-04-29T12:59:08.481Z,99316.88
2018-04-29T13:01:36.811Z,99309.92
2018-04-29T13:04:05.131Z,99309.34
2018-04-29T13:06:33.443Z,99298.66
2018-04-29T13:09:01.763Z,99298.91
2018-04-29T13:11:30.126Z,99285.78
2018-04-29T13:13:58.428Z,99289.89
2018-04-29T13:16:26.754Z,99282.82
2018-04-29T13:18:55.070Z,99280.48
2018-04-29T13:21:23.384Z,99273.16
2018-04-29T13:23:51.749Z,99273.98
2018-04-29T13:26:20.083Z,99267.98
2018-04-29T13:28:48.405Z,99266.48
2018-04-29T13:31:16.722Z,99265.62
2018-04-29T13:33:45.036Z,99259.54
2018-04-29T13:36:13.351Z,99257.45
2018-04-29T13:38:41.691Z,99259.07
2018-04-29T13:41:09.979Z,99255.81
2018-04-29T13:43:38.362Z,99255.64
2018-04-29T13:46:06.679Z,99247.75
2018-04-29T13:48:35.049Z,99244.58
2018-04-29T13:51:03.371Z,99240.70
2018-04-29T13:53:31.729Z,99239.93
2018-04-29T13:56:00.567Z,99241.89
2018-04-29T13:58:28.892Z,99240.31
2018-04-29T14:00:57.265Z,99238.80
2018-04-29T14:03:25.573Z,99235.27
2018-04-29T14:05:53.881Z,99230.56
2018-04-29T14:08:22.257Z,99231.95
2018-04-29T14:10:50.591Z,99227.88
2018-04-29T14:13:18.914Z,99225.61
2018-04-29T14:15:47.256Z,99217.14
2018-04-29T14:18:15.572Z,99219.31
2018-04-29T14:20:43.916Z,99210.30
2018-04-29T14:23:12.255Z,99210.98
2018-04-29T14:25:40.595Z,99208.92
2018-04-29T14:28:08.942Z,99206.81
2018-04-29T14:30:37.272Z,99202.34
2018-04-29T14:33:05.580Z,99204.11
2018-04-29T14:35:33.928Z,99202.09
2018-04-29T14:38:02.302Z,99196.62
2018-04-29T14:40:30.599Z,99194.02
2018-04-29T14:42:58.942Z,99193.77
2018-04-29T14:45:27.258Z,99183.05
2018-04-29T14:47:55.599Z,99184.62
2018-04-29T14:50:23.922Z,99183.39
2018-04-29T14:52:52.870Z,99184.42
2018-04-29T14:55:21.689Z,99182.59
2018-04-29T14:57:49.983Z,99181.63
2018-04-29T15:00:18.321Z,99176.50
2018-04-29T15:02:46.641Z,99174.80
2018-04-29T15:05:14.993Z,99168.78
2018-04-29T15:07:43.308Z,99165.20
2018-04-29T15:10:11.592Z,99167.74
2018-04-29T15:12:39.924Z,99168.50
2018-04-29T15:15:08.384Z,99152.07
2018-04-29T15:17:36.692Z,99158.77
2018-04-29T15:20:05.002Z,99148.53
2018-04-29T15:22:33.341Z,99154.63
2018-04-29T15:25:01.677Z,99149.88
2018-04-29T15:27:30.012Z,99139.80
2018-04-29T15:29:58.364Z,99143.15
2018-04-29T15:32:27.057Z,99138.46
2018-04-29T15:34:55.413Z,99135.31
2018-04-29T15:37:23.720Z,99131.02
2018-04-29T15:39:52.148Z,99123.50
2018-04-29T15:42:20.478Z,99125.90
2018-04-29T15:44:48.792Z,99127.52
2018-04-29T15:47:17.357Z,99122.13
2018-04-29T15:49:45.662Z,99112.95
2018-04-29T15:52:14.045Z,99114.05
2018-04-29T15:54:42.378Z,99110.28
2018-04-29T15:57:10.691Z,99113.53
2018-04-29T15:59:39.055Z,99101.87
2018-04-29T16:02:07.408Z,99103.66
2018-04-29T16:04:35.719Z,99101.63
2018-04-29T16:07:04.061Z,99097.81
2018-04-29T16:09:32.389Z,99098.34
2018-04-29T16:12:00.703Z,99102.04
2018-04-29T16:14:29.049Z,99103.97
2018-04-29T16:16:57.419Z,99089.65
2018-04-29T16:19:25.781Z,99081.70
2018-04-29T16:21:54.100Z,99083.21
2018-04-29T16:24:22.440Z,99082.50
2018-04-29T16:26:50.787Z,99079.17
2018-04-29T16:29:19.093Z,99078.36
2018-04-29T16:31:47.412Z,99080.07
2018-04-29T16:34:15.736Z,99075.81
2018-04-29T16:36:44.060Z,99074.89
2018-04-29T16:39:12.355Z,99069.11
2018-04-29T16:41:40.682Z,99061.16
2018-04-29T16:44:09.002Z,99061.95
2018-04-29T16:46:37.329Z,99059.24
2018-04-29T16:49:05.622Z,99059.08
2018-04-29T16:51:33.946Z,99058.86
2018-04-29T16:54:02.265Z,99056.77
2018-04-29T16:56:30.578Z,99054.93
2018-04-29T16:58:58.897Z,99056.33
2018-04-29T17:01:27.589Z,99050.14
2018-04-29T17:03:55.882Z,99048.22
2018-04-29T17:06:24.200Z,99047.48
2018-04-29T17:08:52.549Z,99040.16
2018-04-29T17:11:20.850Z,99040.37
2018-04-29T17:13:49.166Z,99037.34
2018-04-29T17:16:17.486Z,99040.86
2018-04-29T17:18:45.786Z,99032.39
2018-04-29T17:21:14.134Z,99039.28
2018-04-29T17:23:42.460Z,99043.35
2018-04-29T17:26:10.762Z,99039.78
2018-04-29T17:28:39.449Z,99049.64
2018-04-29T17:31:07.813Z,99036.38
2018-04-29T17:33:36.132Z,99046.63
2018-04-29T17:36:04.461Z,99042.68
2018-04-29T17:38:32.807Z,99045.64
2018-04-29T17:41:01.131Z,99036.27
2018-04-29T17:43:29.454Z,99038.67
2018-04-29T17:45:57.815Z,99037.39
2018-04-29T17:48:26.195Z,99033.70
2018-04-29T17:50:54.501Z,99032.74
2018-04-29T17:53:22.832Z,99030.89
2018-04-29T17:55:51.161Z,99031.66
2018-04-29T17:58:19.505Z,99029.80
2018-04-29T18:00:47.859Z,99021.61
2018-04-29T18:03:16.183Z,99020.66
2018-04-29T18:05:44.486Z,99018.74
2018-04-29T18:08:12.803Z,99024.61
2018-04-29T18:10:41.240Z,99023.27
2018-04-29T18:13:09.545Z,99023.09
2018-04-29T18:15:37.878Z,99022.53
2018-04-29T18:18:06.192Z,99024.87
2018-04-29T18:20:34.599Z,99017.86
2018-04-29T18:23:02.957Z,99024.28
2018-04-29T18:25:31.282Z,99021.73
2018-04-29T18:27:59.609Z,99023.47
2018-04-29T18:30:27.925Z,99025.21
2018-04-29T18:32:56.237Z,99016.65
2018-04-29T18:35:24.582Z,99012.14
2018-04-29T18:37:52.890Z,99013.48
2018-04-29T18:40:21.241Z,99016.78
2018-04-29T18:42:49.587Z,99022.45
2018-04-29T18:45:17.924Z,99024.19
2018-04-29T18:47:46.258Z,99020.45
2018-04-29T18:50:14.685Z,99021.62
2018-04-29T18:52:43.010Z,99026.13
2018-04-29T18:55:11.361Z,99022.80
2018-04-29T18:57:39.703Z,99030.01
2018-04-29T19:00:08.019Z,99030.20
2018-04-29T19:02:36.364Z,99024.13
2018-04-29T19:05:04.679Z,99032.89
2018-04-29T19:07:33.019Z,99031.09
2018-04-29T19:10:01.367Z,99026.76
2018-04-29T19:12:29.703Z,99027.16
2018-04-29T19:14:58.018Z,99025.14
2018-04-29T19:17:26.347Z,99023.38
2018-04-29T19:19:54.661Z,99014.20
2018-04-29T19:22:23.000Z,99016.51
2018-04-29T19:24:51.348Z,99017.47
2018-04-29T19:27:19.675Z,99011.95
2018-04-29T19:29:48.009Z,99008.40
2018-04-29T19:32:16.357Z,99008.22
2018-04-29T19:34:44.692Z,98996.70
2018-04-29T19:37:13.011Z,99001.72
2018-04-29T19:39:41.330Z,98992.97
2018-04-29T19:42:09.662Z,98988.84
2018-04-29T19:44:38.120Z,98986.09
2018-04-29T19:47:06.461Z,98984.95
2018-04-29T19:49:34.775Z,98984.34
2018-04-29T19:52:03.099Z,98983.12
2018-04-29T19:54:31.451Z,98987.25
2018-04-29T19:56:59.778Z,98980.58
2018-04-29T19:59:28.154Z,98981.16
2018-04-29T20:01:56.482Z,98979.00
2018-04-29T20:04:24.837Z,98980.52
2018-04-29T20:06:53.158Z,98973.28
2018-04-29T20:09:21.529Z,98974.19
2018-04-29T20:11:49.846Z,98971.05
2018-04-29T20:14:18.187Z,98966.92
2018-04-29T20:16:46.565Z,98957.94
2018-04-29T20:19:14.954Z,98963.11
2018-04-29T20:21:43.339Z,98962.48
2018-04-29T20:24:11.720Z,98954.21
2018-04-29T20:26:40.088Z,98952.33
2018-04-29T20:29:08.400Z,98943.83
2018-04-29T20:31:36.769Z,98942.11
2018-04-29T20:34:05.104Z,98935.06
2018-04-29T20:36:33.426Z,98930.26
2018-04-29T20:39:01.760Z,98923.74
2018-04-29T20:41:30.109Z,98919.51
2018-04-29T20:43:58.445Z,98914.95
2018-04-29T20:46:26.780Z,98914.59
2018-04-29T20:48:55.141Z,98906.04
2018-04-29T20:51:23.466Z,98905.95
2018-04-29T20:53:51.787Z,98904.47
2018-04-29T20:56:20.134Z,98896.25
2018-04-29T20:58:48.478Z,98901.92
2018-04-29T21:01:16.821Z,98900.42
2018-04-29T21:03:45.148Z,98890.56
2018-04-29T21:06:13.483Z,98889.33
2018-04-29T21:08:42.762Z,98881.73
2018-04-29T21:11:11.083Z,98876.20
2018-04-29T21:13:39.543Z,98866.44
2018-04-29T21:16:07.990Z,98862.42
2018-04-29T21:18:36.330Z,98860.45
2018-04-29T21:21:04.654Z,98861.84
2018-04-29T21:23:32.977Z,98859.55
2018-04-29T21:26:01.303Z,98860.91
2018-04-29T21:28:30.223Z,98855.44
2018-04-29T21:30:58.534Z,98847.80
2018-04-29T21:33:26.872Z,98849.63
2018-04-29T21:35:55.331Z,98834.84
2018-04-29T21:38:23.692Z,98833.70
2018-04-29T21:40:52.003Z,98832.43
2018-04-29T21:43:20.363Z,98826.49
2018-04-29T21:45:48.686Z,98828.34
2018-04-29T21:48:17.011Z,98819.94
2018-04-29T21:50:45.356Z,98816.68
2018-04-29T21:53:13.720Z,98816.69
2018-04-29T21:55:42.040Z,98814.45
2018-04-29T21:58:10.397Z,98812.31
2018-04-29T22:00:39.164Z,98809.54
2018-04-29T22:03:07.479Z,98801.30
2018-04-29T22:05:35.812Z,98794.77
2018-04-29T22:08:04.145Z,98798.06
2018-04-29T22:10:32.471Z,98796.50
2018-04-29T22:13:02.582Z,98798.57
2018-04-29T22:15:30.923Z,98800.70
2018-04-29T22:17:59.239Z,98786.52
2018-04-29T22:20:27.573Z,98788.10
2018-04-29T22:22:55.901Z,98781.41
2018-04-29T22:25:24.230Z,98782.46
2018-04-29T22:27:52.776Z,98784.37
2018-04-29T22:30:21.096Z,98778.12
2018-04-29T22:32:49.438Z,98775.34
2018-04-29T22:35:17.783Z,98767.88
2018-04-29T22:37:46.139Z,98766.72
2018-04-29T22:40:14.474Z,98765.25
2018-04-29T22:42:42.912Z,98751.96
2018-04-29T22:45:11.238Z,98754.75
2018-04-29T22:47:39.566Z,98750.41
2018-04-29T22:50:07.896Z,98745.38
2018-04-29T22:52:36.230Z,98745.62
2018-04-29T22:55:04.554Z,98737.67
2018-04-29T22:57:32.887Z,98741.19
2018-04-29T23:00:01.217Z,98728.84
2018-04-29T23:02:29.553Z,98725.24
2018-04-29T23:04:57.899Z,98724.27
2018-04-29T23:07:26.216Z,98713.31
2018-04-29T23:09:54.564Z,98711.50
2018-04-29T23:12:22.880Z,98703.20
2018-04-29T23:14:51.216Z,98706.19
2018-04-29T23:17:19.551Z,98707.95
2018-04-29T23:19:47.883Z,98703.45
2018-04-29T23:22:16.211Z,98694.11
2018-04-29T23:24:44.526Z,98686.12
2018-04-29T23:27:12.878Z,98684.21
2018-04-29T23:29:41.226Z,98682.94
2018-04-29T23:32:09.590Z,98680.19
2018-04-29T23:34:37.915Z,98673.03
2018-04-29T23:37:06.245Z,98672.40
2018-04-29T23:39:34.574Z,98662.84
2018-04-29T23:42:02.919Z,98659.62
2018-04-29T23:44:31.268Z,98651.03
2018-04-29T23:46:59.574Z,98644.84
2018-04-29T23:49:27.897Z,98629.14
2018-04-29T23:51:56.223Z,98631.06
2018-04-29T23:54:24.540Z,98622.04
2018-04-29T23:56:52.883Z,98622.03
2018-04-29T23:59:21.194Z,98623.16
